sensor_id;sensor_type;location;lat;lon;timestamp;P1;durP1;ratioP1;P2;durP2;ratioP2
20441;SDS011;10380;52.102;20.614;2024-03-23T00:53:52;29.77;;;17.73;;
20441;SDS011;10380;52.102;20.614;2024-03-23T00:56:18;28.97;;;17.37;;
20441;SDS011;10380;52.102;20.614;2024-03-23T00:58:44;28.87;;;16.87;;
20441;SDS011;10380;52.102;20.614;2024-03-23T01:01:10;30.07;;;16.83;;
20441;SDS011;10380;52.102;20.614;2024-03-23T01:03:37;32.17;;;18.33;;
20441;SDS011;10380;52.102;20.614;2024-03-23T01:06:03;32.10;;;18.97;;
20441;SDS011;10380;52.102;20.614;2024-03-23T01:08:31;30.63;;;17.93;;
20441;SDS011;10380;52.102;20.614;2024-03-23T01:10:57;30.23;;;17.77;;
20441;SDS011;10380;52.102;20.614;2024-03-23T01:13:24;26.43;;;16.53;;
20441;SDS011;10380;52.102;20.614;2024-03-23T01:15:51;28.30;;;17.57;;
20441;SDS011;10380;52.102;20.614;2024-03-23T01:18:18;29.80;;;18.30;;
20441;SDS011;10380;52.102;20.614;2024-03-23T01:20:45;32.27;;;19.33;;
20441;SDS011;10380;52.102;20.614;2024-03-23T01:23:11;29.33;;;17.83;;
20441;SDS011;10380;52.102;20.614;2024-03-23T01:25:37;35.70;;;18.70;;
20441;SDS011;10380;52.102;20.614;2024-03-23T01:28:04;30.73;;;17.80;;
20441;SDS011;10380;52.102;20.614;2024-03-23T01:30:32;29.83;;;17.63;;
20441;SDS011;10380;52.102;20.614;2024-03-23T01:32:59;29.27;;;18.93;;
20441;SDS011;10380;52.102;20.614;2024-03-23T01:35:26;29.10;;;17.37;;
20441;SDS011;10380;52.102;20.614;2024-03-23T01:37:51;30.33;;;18.13;;
20441;SDS011;10380;52.102;20.614;2024-03-23T01:40:18;31.30;;;19.23;;
20441;SDS011;10380;52.102;20.614;2024-03-23T01:42:57;29.67;;;18.20;;
20441;SDS011;10380;52.102;20.614;2024-03-23T01:45:24;27.17;;;17.53;;
20441;SDS011;10380;52.102;20.614;2024-03-23T01:47:51;32.83;;;18.37;;
20441;SDS011;10380;52.102;20.614;2024-03-23T01:50:18;33.03;;;20.10;;
20441;SDS011;10380;52.102;20.614;2024-03-23T01:52:45;35.47;;;20.43;;
20441;SDS011;10380;52.102;20.614;2024-03-23T01:55:11;31.57;;;19.40;;
20441;SDS011;10380;52.102;20.614;2024-03-23T01:57:37;32.03;;;18.80;;
20441;SDS011;10380;52.102;20.614;2024-03-23T02:00:03;31.33;;;19.27;;
20441;SDS011;10380;52.102;20.614;2024-03-23T02:02:30;32.00;;;19.83;;
20441;SDS011;10380;52.102;20.614;2024-03-23T02:04:58;29.50;;;19.13;;
20441;SDS011;10380;52.102;20.614;2024-03-23T02:07:24;35.13;;;20.90;;
20441;SDS011;10380;52.102;20.614;2024-03-23T02:09:51;28.37;;;18.70;;
20441;SDS011;10380;52.102;20.614;2024-03-23T02:12:17;33.13;;;18.83;;
20441;SDS011;10380;52.102;20.614;2024-03-23T02:14:43;35.23;;;19.80;;
20441;SDS011;10380;52.102;20.614;2024-03-23T02:17:10;35.40;;;20.13;;
20441;SDS011;10380;52.102;20.614;2024-03-23T02:19:36;28.50;;;18.70;;
20441;SDS011;10380;52.102;20.614;2024-03-23T02:22:02;34.03;;;19.30;;
20441;SDS011;10380;52.102;20.614;2024-03-23T02:24:29;32.97;;;19.40;;
20441;SDS011;10380;52.102;20.614;2024-03-23T02:26:55;31.70;;;19.97;;
20441;SDS011;10380;52.102;20.614;2024-03-23T02:29:21;32.33;;;19.37;;
20441;SDS011;10380;52.102;20.614;2024-03-23T02:31:47;33.07;;;20.60;;
20441;SDS011;10380;52.102;20.614;2024-03-23T02:34:13;36.83;;;20.47;;
20441;SDS011;10380;52.102;20.614;2024-03-23T02:36:40;34.70;;;20.83;;
20441;SDS011;10380;52.102;20.614;2024-03-23T02:39:06;31.47;;;18.93;;
20441;SDS011;10380;52.102;20.614;2024-03-23T02:41:31;36.20;;;18.93;;
20441;SDS011;10380;52.102;20.614;2024-03-23T02:43:58;28.83;;;19.10;;
20441;SDS011;10380;52.102;20.614;2024-03-23T02:46:23;29.93;;;18.03;;
20441;SDS011;10380;52.102;20.614;2024-03-23T02:48:50;27.93;;;18.37;;
20441;SDS011;10380;52.102;20.614;2024-03-23T02:51:15;33.07;;;20.87;;
20441;SDS011;10380;52.102;20.614;2024-03-23T02:53:43;33.37;;;19.33;;
20441;SDS011;10380;52.102;20.614;2024-03-23T02:56:09;32.70;;;19.00;;
20441;SDS011;10380;52.102;20.614;2024-03-23T02:58:41;33.23;;;19.17;;
20441;SDS011;10380;52.102;20.614;2024-03-23T03:01:08;33.53;;;19.57;;
20441;SDS011;10380;52.102;20.614;2024-03-23T03:03:33;31.13;;;17.57;;
20441;SDS011;10380;52.102;20.614;2024-03-23T03:06:00;34.63;;;18.97;;
20441;SDS011;10380;52.102;20.614;2024-03-23T03:08:26;38.90;;;19.90;;
20441;SDS011;10380;52.102;20.614;2024-03-23T03:10:52;38.60;;;21.17;;
20441;SDS011;10380;52.102;20.614;2024-03-23T03:13:18;34.10;;;18.60;;
20441;SDS011;10380;52.102;20.614;2024-03-23T03:15:45;33.83;;;21.37;;
20441;SDS011;10380;52.102;20.614;2024-03-23T03:18:11;32.00;;;19.53;;
20441;SDS011;10380;52.102;20.614;2024-03-23T03:20:38;33.27;;;18.63;;
20441;SDS011;10380;52.102;20.614;2024-03-23T03:23:05;30.17;;;21.30;;
20441;SDS011;10380;52.102;20.614;2024-03-23T03:25:32;31.73;;;20.53;;
20441;SDS011;10380;52.102;20.614;2024-03-23T03:27:58;35.00;;;21.53;;
20441;SDS011;10380;52.102;20.614;2024-03-23T03:30:24;35.77;;;21.30;;
20441;SDS011;10380;52.102;20.614;2024-03-23T03:32:54;37.27;;;21.83;;
20441;SDS011;10380;52.102;20.614;2024-03-23T03:35:20;37.20;;;22.60;;
20441;SDS011;10380;52.102;20.614;2024-03-23T03:37:46;36.13;;;22.50;;
20441;SDS011;10380;52.102;20.614;2024-03-23T03:40:12;35.13;;;22.33;;
20441;SDS011;10380;52.102;20.614;2024-03-23T03:42:40;41.83;;;23.37;;
20441;SDS011;10380;52.102;20.614;2024-03-23T03:45:07;32.73;;;21.27;;
20441;SDS011;10380;52.102;20.614;2024-03-23T03:47:33;36.13;;;22.60;;
20441;SDS011;10380;52.102;20.614;2024-03-23T03:49:59;43.70;;;25.13;;
20441;SDS011;10380;52.102;20.614;2024-03-23T03:52:25;44.47;;;22.97;;
20441;SDS011;10380;52.102;20.614;2024-03-23T03:54:55;37.40;;;22.17;;
20441;SDS011;10380;52.102;20.614;2024-03-23T03:57:27;36.03;;;22.70;;
20441;SDS011;10380;52.102;20.614;2024-03-23T03:59:54;38.37;;;23.47;;
20441;SDS011;10380;52.102;20.614;2024-03-23T04:02:20;40.13;;;23.03;;
20441;SDS011;10380;52.102;20.614;2024-03-23T04:04:46;40.30;;;22.13;;
20441;SDS011;10380;52.102;20.614;2024-03-23T04:07:12;32.83;;;21.17;;
20441;SDS011;10380;52.102;20.614;2024-03-23T04:09:38;39.70;;;25.03;;
20441;SDS011;10380;52.102;20.614;2024-03-23T04:12:05;42.50;;;24.37;;
20441;SDS011;10380;52.102;20.614;2024-03-23T04:14:31;38.53;;;24.63;;
20441;SDS011;10380;52.102;20.614;2024-03-23T04:16:57;44.60;;;26.33;;
20441;SDS011;10380;52.102;20.614;2024-03-23T04:19:24;46.20;;;26.53;;
20441;SDS011;10380;52.102;20.614;2024-03-23T04:21:50;46.63;;;26.80;;
20441;SDS011;10380;52.102;20.614;2024-03-23T04:24:17;46.17;;;26.27;;
20441;SDS011;10380;52.102;20.614;2024-03-23T04:26:45;43.60;;;26.73;;
20441;SDS011;10380;52.102;20.614;2024-03-23T04:29:11;38.63;;;23.77;;
20441;SDS011;10380;52.102;20.614;2024-03-23T04:31:37;40.77;;;22.27;;
20441;SDS011;10380;52.102;20.614;2024-03-23T04:34:03;38.60;;;23.33;;
20441;SDS011;10380;52.102;20.614;2024-03-23T04:36:30;40.20;;;24.80;;
20441;SDS011;10380;52.102;20.614;2024-03-23T04:38:58;42.63;;;24.87;;
20441;SDS011;10380;52.102;20.614;2024-03-23T04:41:25;39.83;;;23.63;;
20441;SDS011;10380;52.102;20.614;2024-03-23T04:43:51;42.53;;;23.00;;
20441;SDS011;10380;52.102;20.614;2024-03-23T04:46:17;39.70;;;23.37;;
20441;SDS011;10380;52.102;20.614;2024-03-23T04:48:44;38.40;;;23.40;;
20441;SDS011;10380;52.102;20.614;2024-03-23T04:51:10;40.30;;;23.23;;
20441;SDS011;10380;52.102;20.614;2024-03-23T04:53:38;34.90;;;23.00;;
20441;SDS011;10380;52.102;20.614;2024-03-23T04:56:03;38.63;;;22.50;;
20441;SDS011;10380;52.102;20.614;2024-03-23T04:58:30;34.67;;;21.57;;
20441;SDS011;10380;52.102;20.614;2024-03-23T05:00:56;40.47;;;24.37;;
20441;SDS011;10380;52.102;20.614;2024-03-23T05:03:23;36.80;;;21.70;;
20441;SDS011;10380;52.102;20.614;2024-03-23T05:05:49;36.20;;;22.87;;
20441;SDS011;10380;52.102;20.614;2024-03-23T05:08:15;39.97;;;22.20;;
20441;SDS011;10380;52.102;20.614;2024-03-23T05:10:42;35.93;;;22.03;;
20441;SDS011;10380;52.102;20.614;2024-03-23T05:13:09;35.67;;;21.30;;
20441;SDS011;10380;52.102;20.614;2024-03-23T05:15:35;35.40;;;22.00;;
20441;SDS011;10380;52.102;20.614;2024-03-23T05:18:01;33.37;;;21.40;;
20441;SDS011;10380;52.102;20.614;2024-03-23T05:20:28;34.87;;;20.43;;
20441;SDS011;10380;52.102;20.614;2024-03-23T05:22:54;36.33;;;23.57;;
20441;SDS011;10380;52.102;20.614;2024-03-23T05:25:21;34.17;;;21.17;;
20441;SDS011;10380;52.102;20.614;2024-03-23T05:27:48;35.40;;;22.10;;
20441;SDS011;10380;52.102;20.614;2024-03-23T05:30:14;35.90;;;22.03;;
20441;SDS011;10380;52.102;20.614;2024-03-23T05:32:40;35.03;;;22.30;;
20441;SDS011;10380;52.102;20.614;2024-03-23T05:35:07;33.93;;;22.00;;
20441;SDS011;10380;52.102;20.614;2024-03-23T05:37:33;34.40;;;22.80;;
20441;SDS011;10380;52.102;20.614;2024-03-23T05:40:00;34.60;;;21.77;;
20441;SDS011;10380;52.102;20.614;2024-03-23T05:42:26;33.20;;;20.73;;
20441;SDS011;10380;52.102;20.614;2024-03-23T05:44:52;35.43;;;21.73;;
20441;SDS011;10380;52.102;20.614;2024-03-23T05:47:18;33.73;;;20.93;;
20441;SDS011;10380;52.102;20.614;2024-03-23T05:49:45;33.77;;;20.43;;
20441;SDS011;10380;52.102;20.614;2024-03-23T05:52:11;32.97;;;20.83;;
20441;SDS011;10380;52.102;20.614;2024-03-23T05:54:38;35.47;;;22.73;;
20441;SDS011;10380;52.102;20.614;2024-03-23T05:57:04;33.53;;;20.37;;
20441;SDS011;10380;52.102;20.614;2024-03-23T05:59:33;33.23;;;21.27;;
20441;SDS011;10380;52.102;20.614;2024-03-23T06:01:59;30.93;;;20.07;;
20441;SDS011;10380;52.102;20.614;2024-03-23T06:04:25;33.53;;;20.13;;
20441;SDS011;10380;52.102;20.614;2024-03-23T06:06:52;33.07;;;21.43;;
20441;SDS011;10380;52.102;20.614;2024-03-23T06:09:18;29.20;;;19.13;;
20441;SDS011;10380;52.102;20.614;2024-03-23T06:11:48;39.53;;;20.90;;
20441;SDS011;10380;52.102;20.614;2024-03-23T06:14:14;35.07;;;20.03;;
20441;SDS011;10380;52.102;20.614;2024-03-23T06:16:40;30.47;;;20.07;;
20441;SDS011;10380;52.102;20.614;2024-03-23T06:19:07;30.93;;;19.63;;
20441;SDS011;10380;52.102;20.614;2024-03-23T06:21:33;33.40;;;20.63;;
20441;SDS011;10380;52.102;20.614;2024-03-23T06:23:59;30.63;;;19.87;;
20441;SDS011;10380;52.102;20.614;2024-03-23T06:26:25;31.57;;;19.63;;
20441;SDS011;10380;52.102;20.614;2024-03-23T06:28:51;31.87;;;20.13;;
20441;SDS011;10380;52.102;20.614;2024-03-23T06:31:17;33.63;;;20.50;;
20441;SDS011;10380;52.102;20.614;2024-03-23T06:33:43;30.63;;;19.73;;
20441;SDS011;10380;52.102;20.614;2024-03-23T06:36:10;37.83;;;22.50;;
20441;SDS011;10380;52.102;20.614;2024-03-23T06:38:37;33.40;;;20.80;;
20441;SDS011;10380;52.102;20.614;2024-03-23T06:41:03;32.80;;;21.03;;
20441;SDS011;10380;52.102;20.614;2024-03-23T06:43:34;34.47;;;20.97;;
20441;SDS011;10380;52.102;20.614;2024-03-23T06:46:01;33.87;;;19.27;;
20441;SDS011;10380;52.102;20.614;2024-03-23T06:48:29;30.07;;;18.83;;
20441;SDS011;10380;52.102;20.614;2024-03-23T06:50:56;29.87;;;20.13;;
20441;SDS011;10380;52.102;20.614;2024-03-23T06:53:22;32.73;;;20.13;;
20441;SDS011;10380;52.102;20.614;2024-03-23T06:55:52;30.57;;;19.53;;
20441;SDS011;10380;52.102;20.614;2024-03-23T06:58:22;29.23;;;18.60;;
20441;SDS011;10380;52.102;20.614;2024-03-23T07:00:50;32.67;;;19.37;;
20441;SDS011;10380;52.102;20.614;2024-03-23T07:03:16;34.27;;;20.10;;
20441;SDS011;10380;52.102;20.614;2024-03-23T07:05:42;26.47;;;17.40;;
20441;SDS011;10380;52.102;20.614;2024-03-23T07:08:09;31.47;;;19.10;;
20441;SDS011;10380;52.102;20.614;2024-03-23T07:10:34;26.63;;;19.47;;
20441;SDS011;10380;52.102;20.614;2024-03-23T07:13:01;32.73;;;19.07;;
20441;SDS011;10380;52.102;20.614;2024-03-23T07:15:27;30.57;;;18.77;;
20441;SDS011;10380;52.102;20.614;2024-03-23T07:17:53;35.03;;;19.47;;
20441;SDS011;10380;52.102;20.614;2024-03-23T07:20:19;28.60;;;17.37;;
20441;SDS011;10380;52.102;20.614;2024-03-23T07:22:46;30.17;;;17.70;;
20441;SDS011;10380;52.102;20.614;2024-03-23T07:25:12;32.43;;;18.07;;
20441;SDS011;10380;52.102;20.614;2024-03-23T07:27:39;30.97;;;18.40;;
20441;SDS011;10380;52.102;20.614;2024-03-23T07:30:06;29.30;;;18.20;;
20441;SDS011;10380;52.102;20.614;2024-03-23T07:32:33;30.37;;;17.70;;
20441;SDS011;10380;52.102;20.614;2024-03-23T07:34:58;30.47;;;19.13;;
20441;SDS011;10380;52.102;20.614;2024-03-23T07:37:25;32.60;;;19.43;;
20441;SDS011;10380;52.102;20.614;2024-03-23T07:39:51;30.90;;;16.90;;
20441;SDS011;10380;52.102;20.614;2024-03-23T07:42:17;28.70;;;17.67;;
20441;SDS011;10380;52.102;20.614;2024-03-23T07:44:43;26.38;;;17.77;;
20441;SDS011;10380;52.102;20.614;2024-03-23T07:47:09;29.47;;;18.60;;
20441;SDS011;10380;52.102;20.614;2024-03-23T07:49:35;29.40;;;16.80;;
20441;SDS011;10380;52.102;20.614;2024-03-23T07:52:01;28.17;;;17.53;;
20441;SDS011;10380;52.102;20.614;2024-03-23T07:54:27;28.53;;;16.20;;
20441;SDS011;10380;52.102;20.614;2024-03-23T07:56:53;27.17;;;17.23;;
20441;SDS011;10380;52.102;20.614;2024-03-23T07:59:20;30.15;;;17.17;;
20441;SDS011;10380;52.102;20.614;2024-03-23T08:01:46;26.47;;;16.50;;
20441;SDS011;10380;52.102;20.614;2024-03-23T08:04:12;25.47;;;16.53;;
20441;SDS011;10380;52.102;20.614;2024-03-23T08:06:38;28.67;;;15.80;;
20441;SDS011;10380;52.102;20.614;2024-03-23T08:09:04;25.50;;;15.38;;
20441;SDS011;10380;52.102;20.614;2024-03-23T08:11:30;26.50;;;16.60;;
20441;SDS011;10380;52.102;20.614;2024-03-23T08:13:57;25.35;;;15.00;;
20441;SDS011;10380;52.102;20.614;2024-03-23T08:16:23;23.20;;;14.60;;
20441;SDS011;10380;52.102;20.614;2024-03-23T08:18:53;27.27;;;15.75;;
20441;SDS011;10380;52.102;20.614;2024-03-23T08:21:21;24.20;;;15.47;;
20441;SDS011;10380;52.102;20.614;2024-03-23T08:23:47;21.00;;;14.37;;
20441;SDS011;10380;52.102;20.614;2024-03-23T08:26:15;28.38;;;16.00;;
20441;SDS011;10380;52.102;20.614;2024-03-23T08:28:43;23.33;;;13.73;;
20441;SDS011;10380;52.102;20.614;2024-03-23T08:31:10;25.43;;;14.80;;
20441;SDS011;10380;52.102;20.614;2024-03-23T08:33:37;20.57;;;13.17;;
20441;SDS011;10380;52.102;20.614;2024-03-23T08:36:06;23.80;;;14.07;;
20441;SDS011;10380;52.102;20.614;2024-03-23T08:38:33;22.58;;;14.50;;
20441;SDS011;10380;52.102;20.614;2024-03-23T08:41:00;25.97;;;13.83;;
20441;SDS011;10380;52.102;20.614;2024-03-23T08:43:31;19.45;;;13.23;;
20441;SDS011;10380;52.102;20.614;2024-03-23T08:46:08;22.67;;;14.55;;
20441;SDS011;10380;52.102;20.614;2024-03-23T08:48:38;21.25;;;13.35;;
20441;SDS011;10380;52.102;20.614;2024-03-23T08:51:06;17.85;;;11.98;;
20441;SDS011;10380;52.102;20.614;2024-03-23T08:53:34;21.70;;;12.63;;
20441;SDS011;10380;52.102;20.614;2024-03-23T08:56:00;20.13;;;14.18;;
20441;SDS011;10380;52.102;20.614;2024-03-23T08:58:28;17.75;;;12.07;;
20441;SDS011;10380;52.102;20.614;2024-03-23T09:00:55;17.73;;;11.30;;
20441;SDS011;10380;52.102;20.614;2024-03-23T09:03:22;17.65;;;12.02;;
20441;SDS011;10380;52.102;20.614;2024-03-23T09:05:52;21.25;;;12.23;;
20441;SDS011;10380;52.102;20.614;2024-03-23T09:08:18;14.73;;;9.93;;
20441;SDS011;10380;52.102;20.614;2024-03-23T09:10:44;15.52;;;10.27;;
20441;SDS011;10380;52.102;20.614;2024-03-23T09:13:11;16.08;;;10.52;;
20441;SDS011;10380;52.102;20.614;2024-03-23T09:15:37;13.30;;;9.32;;
20441;SDS011;10380;52.102;20.614;2024-03-23T09:18:11;14.93;;;10.23;;
20441;SDS011;10380;52.102;20.614;2024-03-23T09:20:37;16.95;;;10.18;;
20441;SDS011;10380;52.102;20.614;2024-03-23T09:23:02;15.15;;;10.25;;
20441;SDS011;10380;52.102;20.614;2024-03-23T09:25:29;16.60;;;10.38;;
20441;SDS011;10380;52.102;20.614;2024-03-23T09:27:55;16.58;;;10.10;;
20441;SDS011;10380;52.102;20.614;2024-03-23T09:30:21;12.93;;;9.20;;
20441;SDS011;10380;52.102;20.614;2024-03-23T09:32:47;12.73;;;8.88;;
20441;SDS011;10380;52.102;20.614;2024-03-23T09:35:13;16.52;;;10.82;;
20441;SDS011;10380;52.102;20.614;2024-03-23T09:37:39;17.42;;;10.95;;
20441;SDS011;10380;52.102;20.614;2024-03-23T09:40:09;14.20;;;9.77;;
20441;SDS011;10380;52.102;20.614;2024-03-23T09:42:37;13.75;;;9.05;;
20441;SDS011;10380;52.102;20.614;2024-03-23T09:45:04;15.40;;;9.75;;
20441;SDS011;10380;52.102;20.614;2024-03-23T09:47:34;17.25;;;10.35;;
20441;SDS011;10380;52.102;20.614;2024-03-23T09:50:00;12.20;;;8.80;;
20441;SDS011;10380;52.102;20.614;2024-03-23T09:52:26;16.40;;;10.23;;
20441;SDS011;10380;52.102;20.614;2024-03-23T09:54:52;15.68;;;10.68;;
20441;SDS011;10380;52.102;20.614;2024-03-23T09:57:18;13.15;;;9.77;;
20441;SDS011;10380;52.102;20.614;2024-03-23T09:59:44;14.07;;;9.25;;
20441;SDS011;10380;52.102;20.614;2024-03-23T10:02:10;13.35;;;9.10;;
20441;SDS011;10380;52.102;20.614;2024-03-23T10:04:42;16.15;;;9.60;;
20441;SDS011;10380;52.102;20.614;2024-03-23T10:07:13;13.60;;;9.20;;
20441;SDS011;10380;52.102;20.614;2024-03-23T10:09:40;14.15;;;9.38;;
20441;SDS011;10380;52.102;20.614;2024-03-23T10:14:36;13.75;;;9.57;;
20441;SDS011;10380;52.102;20.614;2024-03-23T10:17:12;14.65;;;9.02;;
20441;SDS011;10380;52.102;20.614;2024-03-23T10:22:15;16.45;;;8.85;;
20441;SDS011;10380;52.102;20.614;2024-03-23T10:24:44;13.77;;;9.32;;
20441;SDS011;10380;52.102;20.614;2024-03-23T10:27:21;17.30;;;9.20;;
20441;SDS011;10380;52.102;20.614;2024-03-23T10:29:47;11.80;;;8.30;;
20441;SDS011;10380;52.102;20.614;2024-03-23T10:32:17;11.63;;;7.95;;
20441;SDS011;10380;52.102;20.614;2024-03-23T10:34:44;12.90;;;8.43;;
20441;SDS011;10380;52.102;20.614;2024-03-23T10:37:10;13.98;;;8.15;;
20441;SDS011;10380;52.102;20.614;2024-03-23T10:39:40;15.68;;;7.68;;
20441;SDS011;10380;52.102;20.614;2024-03-23T10:42:07;10.30;;;7.47;;
20441;SDS011;10380;52.102;20.614;2024-03-23T10:44:35;14.73;;;7.60;;
20441;SDS011;10380;52.102;20.614;2024-03-23T10:47:03;11.15;;;7.97;;
20441;SDS011;10380;52.102;20.614;2024-03-23T10:49:31;10.90;;;7.35;;
20441;SDS011;10380;52.102;20.614;2024-03-23T10:51:58;11.15;;;7.30;;
20441;SDS011;10380;52.102;20.614;2024-03-23T10:54:26;11.77;;;7.10;;
20441;SDS011;10380;52.102;20.614;2024-03-23T10:56:56;10.32;;;7.28;;
20441;SDS011;10380;52.102;20.614;2024-03-23T10:59:31;10.93;;;7.57;;
20441;SDS011;10380;52.102;20.614;2024-03-23T11:01:59;11.00;;;7.40;;
20441;SDS011;10380;52.102;20.614;2024-03-23T11:04:31;13.18;;;7.93;;
20441;SDS011;10380;52.102;20.614;2024-03-23T11:07:01;10.82;;;7.35;;
20441;SDS011;10380;52.102;20.614;2024-03-23T11:12:36;10.18;;;7.50;;
20441;SDS011;10380;52.102;20.614;2024-03-23T11:15:03;12.98;;;7.90;;
20441;SDS011;10380;52.102;20.614;2024-03-23T11:17:30;13.02;;;7.30;;
20441;SDS011;10380;52.102;20.614;2024-03-23T11:19:57;9.88;;;6.97;;
20441;SDS011;10380;52.102;20.614;2024-03-23T11:22:40;11.40;;;7.18;;
20441;SDS011;10380;52.102;20.614;2024-03-23T11:25:18;10.77;;;6.38;;
20441;SDS011;10380;52.102;20.614;2024-03-23T11:27:52;14.50;;;7.30;;
20441;SDS011;10380;52.102;20.614;2024-03-23T11:30:20;10.27;;;6.75;;
20441;SDS011;10380;52.102;20.614;2024-03-23T11:32:48;12.80;;;7.85;;
20441;SDS011;10380;52.102;20.614;2024-03-23T11:35:24;10.93;;;7.20;;
20441;SDS011;10380;52.102;20.614;2024-03-23T11:40:29;13.57;;;8.80;;
20441;SDS011;10380;52.102;20.614;2024-03-23T11:42:58;11.50;;;8.18;;
20441;SDS011;10380;52.102;20.614;2024-03-23T11:45:26;11.20;;;7.43;;
20441;SDS011;10380;52.102;20.614;2024-03-23T11:48:02;11.10;;;8.15;;
20441;SDS011;10380;52.102;20.614;2024-03-23T11:50:37;14.82;;;8.70;;
20441;SDS011;10380;52.102;20.614;2024-03-23T11:53:39;8.95;;;7.28;;
20441;SDS011;10380;52.102;20.614;2024-03-23T11:56:00;10.95;;;7.32;;
20441;SDS011;10380;52.102;20.614;2024-03-23T11:58:29;12.80;;;8.20;;
20441;SDS011;10380;52.102;20.614;2024-03-23T12:00:58;10.35;;;8.07;;
20441;SDS011;10380;52.102;20.614;2024-03-23T12:03:26;14.23;;;8.02;;
20441;SDS011;10380;52.102;20.614;2024-03-23T12:05:54;13.65;;;8.70;;
20441;SDS011;10380;52.102;20.614;2024-03-23T12:08:24;12.32;;;7.78;;
20441;SDS011;10380;52.102;20.614;2024-03-23T12:13:37;14.25;;;9.18;;
20441;SDS011;10380;52.102;20.614;2024-03-23T12:16:13;10.77;;;8.05;;
20441;SDS011;10380;52.102;20.614;2024-03-23T12:18:46;16.15;;;7.82;;
20441;SDS011;10380;52.102;20.614;2024-03-23T12:21:16;12.45;;;8.70;;
20441;SDS011;10380;52.102;20.614;2024-03-23T12:23:43;11.88;;;7.22;;
20441;SDS011;10380;52.102;20.614;2024-03-23T12:26:14;9.27;;;6.63;;
20441;SDS011;10380;52.102;20.614;2024-03-23T12:28:41;10.90;;;7.57;;
20441;SDS011;10380;52.102;20.614;2024-03-23T12:31:07;11.85;;;7.63;;
20441;SDS011;10380;52.102;20.614;2024-03-23T12:33:33;12.88;;;8.05;;
20441;SDS011;10380;52.102;20.614;2024-03-23T12:35:59;9.75;;;7.10;;
20441;SDS011;10380;52.102;20.614;2024-03-23T12:38:25;8.05;;;6.10;;
20441;SDS011;10380;52.102;20.614;2024-03-23T12:40:51;9.18;;;7.32;;
20441;SDS011;10380;52.102;20.614;2024-03-23T12:43:19;11.32;;;7.78;;
20441;SDS011;10380;52.102;20.614;2024-03-23T12:45:48;11.70;;;7.28;;
20441;SDS011;10380;52.102;20.614;2024-03-23T12:48:14;10.10;;;6.85;;
20441;SDS011;10380;52.102;20.614;2024-03-23T12:50:40;10.18;;;7.45;;
20441;SDS011;10380;52.102;20.614;2024-03-23T12:53:07;7.82;;;6.50;;
20441;SDS011;10380;52.102;20.614;2024-03-23T12:55:36;8.63;;;7.15;;
20441;SDS011;10380;52.102;20.614;2024-03-23T12:58:02;11.25;;;7.20;;
20441;SDS011;10380;52.102;20.614;2024-03-23T13:00:29;9.48;;;6.80;;
20441;SDS011;10380;52.102;20.614;2024-03-23T13:02:55;13.43;;;6.97;;
20441;SDS011;10380;52.102;20.614;2024-03-23T13:05:21;10.77;;;7.15;;
20441;SDS011;10380;52.102;20.614;2024-03-23T13:07:47;12.48;;;7.63;;
20441;SDS011;10380;52.102;20.614;2024-03-23T13:10:13;12.38;;;6.63;;
20441;SDS011;10380;52.102;20.614;2024-03-23T13:12:40;9.77;;;6.85;;
20441;SDS011;10380;52.102;20.614;2024-03-23T13:15:08;17.35;;;7.40;;
20441;SDS011;10380;52.102;20.614;2024-03-23T13:17:34;7.80;;;6.18;;
20441;SDS011;10380;52.102;20.614;2024-03-23T13:20:00;11.10;;;6.45;;
20441;SDS011;10380;52.102;20.614;2024-03-23T13:22:26;11.32;;;6.72;;
20441;SDS011;10380;52.102;20.614;2024-03-23T13:24:52;9.90;;;7.35;;
20441;SDS011;10380;52.102;20.614;2024-03-23T13:27:18;9.45;;;7.05;;
20441;SDS011;10380;52.102;20.614;2024-03-23T13:29:44;9.52;;;6.38;;
20441;SDS011;10380;52.102;20.614;2024-03-23T13:32:12;8.95;;;6.68;;
20441;SDS011;10380;52.102;20.614;2024-03-23T13:34:38;9.00;;;6.72;;
20441;SDS011;10380;52.102;20.614;2024-03-23T13:37:04;10.93;;;5.90;;
20441;SDS011;10380;52.102;20.614;2024-03-23T13:39:32;9.77;;;6.90;;
20441;SDS011;10380;52.102;20.614;2024-03-23T13:41:58;9.25;;;6.32;;
20441;SDS011;10380;52.102;20.614;2024-03-23T13:44:24;11.38;;;6.68;;
20441;SDS011;10380;52.102;20.614;2024-03-23T13:46:51;9.80;;;7.35;;
20441;SDS011;10380;52.102;20.614;2024-03-23T13:49:30;12.57;;;7.53;;
20441;SDS011;10380;52.102;20.614;2024-03-23T13:51:57;12.82;;;7.38;;
20441;SDS011;10380;52.102;20.614;2024-03-23T13:54:24;11.20;;;7.55;;
20441;SDS011;10380;52.102;20.614;2024-03-23T13:56:51;10.35;;;6.97;;
20441;SDS011;10380;52.102;20.614;2024-03-23T13:59:18;10.95;;;6.97;;
20441;SDS011;10380;52.102;20.614;2024-03-23T14:01:44;15.20;;;7.47;;
20441;SDS011;10380;52.102;20.614;2024-03-23T14:04:14;11.02;;;7.47;;
20441;SDS011;10380;52.102;20.614;2024-03-23T14:06:48;12.48;;;7.82;;
20441;SDS011;10380;52.102;20.614;2024-03-23T14:09:14;14.95;;;6.75;;
20441;SDS011;10380;52.102;20.614;2024-03-23T14:11:46;9.13;;;6.78;;
20441;SDS011;10380;52.102;20.614;2024-03-23T14:14:12;13.40;;;8.93;;
20441;SDS011;10380;52.102;20.614;2024-03-23T14:16:38;14.40;;;9.48;;
20441;SDS011;10380;52.102;20.614;2024-03-23T14:19:04;20.13;;;9.05;;
20441;SDS011;10380;52.102;20.614;2024-03-23T14:21:31;19.67;;;10.90;;
20441;SDS011;10380;52.102;20.614;2024-03-23T14:23:58;19.38;;;10.00;;
20441;SDS011;10380;52.102;20.614;2024-03-23T14:26:24;19.35;;;11.68;;
20441;SDS011;10380;52.102;20.614;2024-03-23T14:28:51;19.48;;;10.15;;
20441;SDS011;10380;52.102;20.614;2024-03-23T14:31:17;16.95;;;9.93;;
20441;SDS011;10380;52.102;20.614;2024-03-23T14:33:43;12.50;;;9.05;;
20441;SDS011;10380;52.102;20.614;2024-03-23T14:36:15;12.82;;;8.43;;
20441;SDS011;10380;52.102;20.614;2024-03-23T14:38:46;15.50;;;8.60;;
20441;SDS011;10380;52.102;20.614;2024-03-23T14:41:15;11.05;;;8.07;;
20441;SDS011;10380;52.102;20.614;2024-03-23T14:43:42;10.80;;;7.75;;
20441;SDS011;10380;52.102;20.614;2024-03-23T14:46:14;13.02;;;8.77;;
20441;SDS011;10380;52.102;20.614;2024-03-23T14:48:42;15.68;;;10.90;;
20441;SDS011;10380;52.102;20.614;2024-03-23T14:51:09;16.63;;;10.13;;
20441;SDS011;10380;52.102;20.614;2024-03-23T14:53:41;13.43;;;8.60;;
20441;SDS011;10380;52.102;20.614;2024-03-23T14:56:10;16.05;;;11.05;;
20441;SDS011;10380;52.102;20.614;2024-03-23T14:58:38;14.48;;;10.38;;
20441;SDS011;10380;52.102;20.614;2024-03-23T15:01:05;17.67;;;10.82;;
20441;SDS011;10380;52.102;20.614;2024-03-23T15:03:36;13.95;;;9.95;;
20441;SDS011;10380;52.102;20.614;2024-03-23T15:06:05;14.30;;;11.20;;
20441;SDS011;10380;52.102;20.614;2024-03-23T15:08:31;20.48;;;10.77;;
20441;SDS011;10380;52.102;20.614;2024-03-23T15:11:02;13.85;;;11.63;;
20441;SDS011;10380;52.102;20.614;2024-03-23T15:13:32;15.90;;;12.60;;
20441;SDS011;10380;52.102;20.614;2024-03-23T15:16:02;18.90;;;12.40;;
20441;SDS011;10380;52.102;20.614;2024-03-23T15:18:29;19.05;;;11.75;;
20441;SDS011;10380;52.102;20.614;2024-03-23T15:20:56;16.23;;;13.07;;